createdAt,value
2022-12-03T00:03:37.278Z,76.91
2022-12-03T00:08:40.737Z,76.79
2022-12-03T00:13:43.909Z,76.59
2022-12-03T00:18:47.074Z,76.53
2022-12-03T00:23:50.280Z,76.57
2022-12-03T00:28:55.014Z,76.77
2022-12-03T00:33:58.787Z,77.06
2022-12-03T00:39:02.046Z,76.86
2022-12-03T00:44:05.571Z,76.93
2022-12-03T00:49:08.972Z,77.12
2022-12-03T00:54:12.176Z,77.16
2022-12-03T00:59:15.425Z,77.44
2022-12-03T01:04:18.745Z,77.58
2022-12-03T01:09:22.133Z,77.71
2022-12-03T01:14:25.269Z,78.37
2022-12-03T01:19:28.569Z,78.37
2022-12-03T01:24:31.742Z,78.70
2022-12-03T01:29:35.532Z,78.84
2022-12-03T01:34:38.746Z,78.89
2022-12-03T01:39:42.601Z,78.83
2022-12-03T01:44:46.888Z,78.90
2022-12-03T01:49:54.529Z,79.04
2022-12-03T01:55:02.080Z,79.10
2022-12-03T02:00:07.125Z,79.35
2022-12-03T02:05:19.570Z,79.39
2022-12-03T02:10:32.383Z,79.61
2022-12-03T02:15:36.974Z,79.45
2022-12-03T02:21:09.849Z,79.35
2022-12-03T02:26:13.204Z,79.62
2022-12-03T02:31:16.541Z,79.49
2022-12-03T02:36:20.834Z,79.11
2022-12-03T02:41:43.135Z,78.99
2022-12-03T02:46:46.621Z,79.28
2022-12-03T02:51:50.167Z,79.31
2022-12-03T02:56:53.423Z,79.56
2022-12-03T03:01:56.712Z,79.13
2022-12-03T03:07:00.284Z,79.01
2022-12-03T03:12:03.577Z,78.51
2022-12-03T03:17:07.289Z,78.57
2022-12-03T03:22:12.005Z,78.36
2022-12-03T03:27:15.227Z,78.24
2022-12-03T03:32:18.611Z,78.26
2022-12-03T03:37:22.324Z,78.35
2022-12-03T03:42:25.763Z,78.38
2022-12-03T03:47:29.100Z,78.10
2022-12-03T03:52:32.425Z,77.94
2022-12-03T03:57:35.989Z,77.99
2022-12-03T04:02:39.169Z,78.04
2022-12-03T04:07:42.502Z,78.08
2022-12-03T04:12:57.834Z,78.42
2022-12-03T04:18:19.900Z,78.51
2022-12-03T04:23:29.309Z,78.57
2022-12-03T04:28:49.295Z,78.59
2022-12-03T04:34:12.473Z,78.56
2022-12-03T04:39:15.809Z,78.51
2022-12-03T04:44:36.414Z,78.49
2022-12-03T04:49:42.354Z,78.59
2022-12-03T04:54:45.608Z,78.57
2022-12-03T04:59:48.849Z,78.63
2022-12-03T05:04:52.444Z,78.78
2022-12-03T05:09:55.919Z,78.94
2022-12-03T05:14:59.085Z,79.14
2022-12-03T05:20:21.122Z,79.00
2022-12-03T05:25:24.315Z,79.26
2022-12-03T05:30:27.720Z,79.66
2022-12-03T05:35:30.962Z,79.52
2022-12-03T05:40:34.276Z,79.29
2022-12-03T05:45:40.464Z,79.00
2022-12-03T05:50:46.476Z,79.03
2022-12-03T05:55:49.577Z,79.01
2022-12-03T06:00:52.981Z,79.25
2022-12-03T06:05:56.167Z,79.50
2022-12-03T06:10:59.403Z,79.36
2022-12-03T06:16:02.555Z,79.47
2022-12-03T06:21:06.981Z,79.48
2022-12-03T06:26:12.161Z,79.19
2022-12-03T06:31:15.525Z,79.20
2022-12-03T06:36:22.826Z,79.28
2022-12-03T06:41:26.826Z,79.30
2022-12-03T06:46:30.487Z,79.95
2022-12-03T06:51:33.873Z,79.62
2022-12-03T06:56:43.370Z,79.55
2022-12-03T07:01:51.338Z,79.41
2022-12-03T07:06:54.572Z,79.47
2022-12-03T07:11:57.805Z,79.22
2022-12-03T07:17:00.952Z,79.00
2022-12-03T07:22:04.478Z,79.08
2022-12-03T07:27:08.207Z,78.72
2022-12-03T07:32:11.402Z,78.61
2022-12-03T07:37:18.633Z,78.70
2022-12-03T07:42:24.791Z,79.15
2022-12-03T07:47:28.142Z,78.88
2022-12-03T07:52:31.670Z,79.50
2022-12-03T07:57:34.989Z,79.17
2022-12-03T08:02:38.342Z,78.98
2022-12-03T08:07:42.088Z,78.78
2022-12-03T08:12:45.455Z,78.78
2022-12-03T08:17:55.299Z,78.91
2022-12-03T08:22:59.943Z,78.86
2022-12-03T08:28:13.037Z,79.14
2022-12-03T08:33:33.911Z,79.37
2022-12-03T08:38:37.409Z,79.36
2022-12-03T08:43:43.164Z,79.31
2022-12-03T08:48:49.277Z,79.08
2022-12-03T08:54:01.821Z,79.14
2022-12-03T08:59:35.328Z,79.03
2022-12-03T09:04:41.288Z,78.89
2022-12-03T09:09:44.530Z,78.83
2022-12-03T09:14:48.067Z,78.36
2022-12-03T09:19:51.241Z,78.31
2022-12-03T09:24:54.709Z,78.28
2022-12-03T09:29:58.491Z,78.37
2022-12-03T09:35:01.746Z,78.51
2022-12-03T09:40:07.258Z,78.64
2022-12-03T09:45:13.627Z,78.80
2022-12-03T09:50:25.611Z,78.45
2022-12-03T09:55:29.398Z,78.87
2022-12-03T10:00:32.602Z,78.62
2022-12-03T10:05:35.918Z,78.59
2022-12-03T10:10:42.043Z,78.60
2022-12-03T10:15:45.245Z,78.45
2022-12-03T10:20:49.219Z,78.18
2022-12-03T10:26:03.851Z,78.10
2022-12-03T10:31:10.253Z,78.08
2022-12-03T10:36:25.771Z,78.24
2022-12-03T10:41:29.569Z,77.15
2022-12-03T10:46:32.821Z,77.06
2022-12-03T10:51:38.376Z,76.47
2022-12-03T10:56:41.700Z,76.20
2022-12-03T11:01:46.037Z,76.38
2022-12-03T11:06:50.757Z,76.60
2022-12-03T11:11:54.730Z,76.98
2022-12-03T11:17:01.111Z,77.34
2022-12-03T11:22:06.933Z,77.64
2022-12-03T11:27:10.187Z,78.22
2022-12-03T11:32:38.303Z,77.90
2022-12-03T11:37:42.034Z,77.70
2022-12-03T11:42:47.439Z,77.46
2022-12-03T11:48:06.199Z,77.68
2022-12-03T11:53:31.739Z,78.15
2022-12-03T11:58:38.757Z,78.50
2022-12-03T12:03:45.725Z,78.86
2022-12-03T12:08:51.914Z,79.22
2022-12-03T12:14:00.835Z,79.36
2022-12-03T12:19:32.392Z,79.29
2022-12-03T12:24:40.673Z,78.96
2022-12-03T12:29:47.537Z,78.92
2022-12-03T12:34:54.920Z,78.80
2022-12-03T12:40:01.652Z,78.57
2022-12-03T12:45:07.585Z,78.52
2022-12-03T12:50:12.291Z,78.78
2022-12-03T12:55:17.076Z,78.55
2022-12-03T13:00:23.840Z,78.36
2022-12-03T13:05:41.160Z,78.16
2022-12-03T13:10:44.776Z,77.66
2022-12-03T13:15:50.772Z,77.39
2022-12-03T13:20:55.691Z,76.65
2022-12-03T13:26:17.360Z,75.67
2022-12-03T13:31:28.333Z,75.23
2022-12-03T13:36:39.604Z,74.77
2022-12-03T13:42:02.107Z,75.16
2022-12-03T13:47:22.871Z,75.52
2022-12-03T13:52:27.288Z,76.34
2022-12-03T13:57:30.629Z,76.86
2022-12-03T14:02:33.926Z,77.13
2022-12-03T14:07:38.973Z,77.44
2022-12-03T14:12:42.900Z,77.68
2022-12-03T14:17:46.132Z,77.78
2022-12-03T14:22:51.258Z,77.73
2022-12-03T14:27:56.272Z,77.93
2022-12-03T14:32:59.483Z,78.12
2022-12-03T14:38:02.931Z,78.47
2022-12-03T14:43:06.117Z,79.11
2022-12-03T14:48:09.347Z,79.14
2022-12-03T14:53:12.498Z,78.87
2022-12-03T14:58:16.730Z,78.91
2022-12-03T15:03:19.908Z,79.21
2022-12-03T15:08:23.149Z,79.39
2022-12-03T15:13:29.595Z,79.87
2022-12-03T15:18:34.797Z,80.50
2022-12-03T15:23:38.138Z,80.60
2022-12-03T15:28:46.704Z,80.90
2022-12-03T15:33:51.464Z,80.80
2022-12-03T15:38:54.682Z,80.48
2022-12-03T15:44:02.200Z,80.64
2022-12-03T15:49:05.390Z,80.87
2022-12-03T15:54:08.621Z,80.86
2022-12-03T15:59:13.267Z,80.76
2022-12-03T16:04:16.455Z,80.76
2022-12-03T16:09:25.306Z,80.78
2022-12-03T16:14:30.577Z,80.85
2022-12-03T16:19:33.829Z,80.91
2022-12-03T16:24:37.077Z,80.86
2022-12-03T16:29:40.848Z,80.89
2022-12-03T16:34:44.045Z,80.95
2022-12-03T16:39:47.386Z,80.93
2022-12-03T16:44:59.635Z,80.95
2022-12-03T16:50:05.493Z,81.00
2022-12-03T16:55:09.219Z,81.28
2022-12-03T17:00:13.113Z,81.61
2022-12-03T17:05:16.588Z,81.82
2022-12-03T17:10:19.909Z,81.79
2022-12-03T17:15:23.306Z,81.98
2022-12-03T17:20:26.524Z,82.02
2022-12-03T17:25:30.736Z,82.06
2022-12-03T17:30:33.996Z,82.15
2022-12-03T17:35:37.240Z,82.25
2022-12-03T17:40:40.446Z,82.62
2022-12-03T17:45:44.602Z,82.55
2022-12-03T17:50:48.939Z,82.75
2022-12-03T17:55:54.537Z,82.84
2022-12-03T18:01:02.335Z,82.72
2022-12-03T18:06:06.706Z,82.59
2022-12-03T18:11:09.915Z,82.59
2022-12-03T18:16:13.191Z,82.57
2022-12-03T18:21:16.398Z,83.39
2022-12-03T18:26:19.547Z,83.24
2022-12-03T18:31:22.881Z,82.91
2022-12-03T18:36:30.200Z,82.72
2022-12-03T18:41:34.011Z,82.77
2022-12-03T18:46:52.916Z,82.62
2022-12-03T18:51:59.540Z,82.91
2022-12-03T18:57:05.545Z,82.94
2022-12-03T19:02:53.724Z,83.01
2022-12-03T19:07:41.189Z,83.23
2022-12-03T19:12:44.369Z,83.40
2022-12-03T19:17:51.684Z,83.23
2022-12-03T19:22:54.992Z,83.34
2022-12-03T19:27:58.248Z,83.37
2022-12-03T19:33:01.451Z,83.39
2022-12-03T19:38:04.744Z,83.40
2022-12-03T19:43:08.197Z,83.28
2022-12-03T19:48:11.410Z,82.86
2022-12-03T19:53:14.540Z,83.26
2022-12-03T19:58:17.933Z,83.64
2022-12-03T20:03:21.138Z,83.98
2022-12-03T20:08:24.366Z,84.17
2022-12-03T20:13:30.846Z,84.32
2022-12-03T20:18:37.610Z,84.51
2022-12-03T20:23:42.255Z,84.65
2022-12-03T20:28:48.334Z,84.66
2022-12-03T20:33:54.750Z,84.58
2022-12-03T20:39:00.609Z,84.73
2022-12-03T20:44:06.606Z,84.76
2022-12-03T20:49:09.883Z,84.78
2022-12-03T20:54:13.393Z,84.93
2022-12-03T20:59:18.255Z,84.55
2022-12-03T21:04:21.970Z,83.73
2022-12-03T21:09:25.601Z,83.55
2022-12-03T21:14:29.926Z,83.51
2022-12-03T21:19:33.276Z,83.31
2022-12-03T21:24:36.484Z,83.27
2022-12-03T21:29:39.811Z,83.15
2022-12-03T21:34:43.025Z,83.13
2022-12-03T21:39:46.304Z,83.15
2022-12-03T21:44:49.597Z,83.20
2022-12-03T21:49:52.932Z,83.23
2022-12-03T21:54:58.392Z,83.25
2022-12-03T22:00:01.656Z,83.22
2022-12-03T22:05:05.097Z,82.98
2022-12-03T22:10:11.163Z,83.48
2022-12-03T22:15:18.672Z,83.39
2022-12-03T22:20:22.779Z,82.83
2022-12-03T22:25:26.042Z,83.43
2022-12-03T22:30:29.431Z,83.84
2022-12-03T22:35:32.622Z,83.66
2022-12-03T22:40:39.678Z,83.78
2022-12-03T22:45:42.896Z,83.70
2022-12-03T22:50:47.867Z,83.68
2022-12-03T22:55:59.172Z,83.56
2022-12-03T23:01:03.094Z,83.43
2022-12-03T23:06:11.236Z,83.54
2022-12-03T23:11:14.843Z,83.58
2022-12-03T23:16:21.274Z,83.38
2022-12-03T23:21:29.920Z,83.39
2022-12-03T23:26:37.648Z,83.07
2022-12-03T23:31:40.982Z,82.96
2022-12-03T23:36:44.253Z,83.96
2022-12-03T23:41:51.260Z,83.12
2022-12-03T23:46:54.483Z,83.54
2022-12-03T23:51:57.765Z,84.67
2022-12-03T23:57:00.974Z,84.65
